sensor_id;sensor_type;location;lat;lon;timestamp;P1;durP1;ratioP1;P2;durP2;ratioP2
84889;SDS011;75153;52.222;5.160;2024-01-30T00:01:13;11.27;;;6.53;;
84889;SDS011;75153;52.222;5.160;2024-01-30T00:03:38;12.27;;;7.07;;
84889;SDS011;75153;52.222;5.160;2024-01-30T00:06:04;15.45;;;8.82;;
84889;SDS011;75153;52.222;5.160;2024-01-30T00:08:29;13.47;;;8.07;;
84889;SDS011;75153;52.222;5.160;2024-01-30T00:10:55;14.80;;;8.03;;
84889;SDS011;75153;52.222;5.160;2024-01-30T00:13:20;13.77;;;8.23;;
84889;SDS011;75153;52.222;5.160;2024-01-30T00:15:46;18.58;;;9.32;;
84889;SDS011;75153;52.222;5.160;2024-01-30T00:18:11;13.80;;;8.80;;
84889;SDS011;75153;52.222;5.160;2024-01-30T00:20:36;11.80;;;8.10;;
84889;SDS011;75153;52.222;5.160;2024-01-30T00:23:02;13.93;;;7.60;;
84889;SDS011;75153;52.222;5.160;2024-01-30T00:25:27;17.70;;;11.17;;
84889;SDS011;75153;52.222;5.160;2024-01-30T00:27:53;14.32;;;8.90;;
84889;SDS011;75153;52.222;5.160;2024-01-30T00:30:18;12.37;;;8.33;;
84889;SDS011;75153;52.222;5.160;2024-01-30T00:32:44;15.23;;;10.05;;
84889;SDS011;75153;52.222;5.160;2024-01-30T00:35:10;12.23;;;7.37;;
84889;SDS011;75153;52.222;5.160;2024-01-30T00:37:36;16.65;;;9.90;;
84889;SDS011;75153;52.222;5.160;2024-01-30T00:40:01;12.60;;;8.33;;
84889;SDS011;75153;52.222;5.160;2024-01-30T00:42:27;14.00;;;8.80;;
84889;SDS011;75153;52.222;5.160;2024-01-30T00:44:52;14.95;;;8.60;;
84889;SDS011;75153;52.222;5.160;2024-01-30T00:47:18;11.25;;;7.45;;
84889;SDS011;75153;52.222;5.160;2024-01-30T00:49:43;15.10;;;8.97;;
84889;SDS011;75153;52.222;5.160;2024-01-30T00:52:08;11.63;;;6.83;;
84889;SDS011;75153;52.222;5.160;2024-01-30T00:54:34;13.73;;;8.47;;
84889;SDS011;75153;52.222;5.160;2024-01-30T00:56:59;13.90;;;8.90;;
84889;SDS011;75153;52.222;5.160;2024-01-30T00:59:24;14.93;;;8.10;;
84889;SDS011;75153;52.222;5.160;2024-01-30T01:01:50;12.40;;;7.87;;
84889;SDS011;75153;52.222;5.160;2024-01-30T01:04:15;10.50;;;6.53;;
84889;SDS011;75153;52.222;5.160;2024-01-30T01:06:42;11.17;;;7.10;;
84889;SDS011;75153;52.222;5.160;2024-01-30T01:09:09;9.80;;;6.68;;
84889;SDS011;75153;52.222;5.160;2024-01-30T01:11:36;16.92;;;9.30;;
84889;SDS011;75153;52.222;5.160;2024-01-30T01:14:03;13.13;;;8.18;;
84889;SDS011;75153;52.222;5.160;2024-01-30T01:16:28;12.27;;;7.70;;
84889;SDS011;75153;52.222;5.160;2024-01-30T01:18:54;11.03;;;6.43;;
84889;SDS011;75153;52.222;5.160;2024-01-30T01:21:19;15.95;;;10.00;;
84889;SDS011;75153;52.222;5.160;2024-01-30T01:23:44;13.67;;;7.87;;
84889;SDS011;75153;52.222;5.160;2024-01-30T01:26:10;13.93;;;8.30;;
84889;SDS011;75153;52.222;5.160;2024-01-30T01:28:35;11.80;;;7.67;;
84889;SDS011;75153;52.222;5.160;2024-01-30T01:31:01;11.35;;;7.53;;
84889;SDS011;75153;52.222;5.160;2024-01-30T01:33:31;10.43;;;6.50;;
84889;SDS011;75153;52.222;5.160;2024-01-30T01:36:01;11.02;;;6.63;;
84889;SDS011;75153;52.222;5.160;2024-01-30T01:38:27;10.93;;;6.03;;
84889;SDS011;75153;52.222;5.160;2024-01-30T01:40:53;12.20;;;7.45;;
84889;SDS011;75153;52.222;5.160;2024-01-30T01:43:18;11.40;;;6.80;;
84889;SDS011;75153;52.222;5.160;2024-01-30T01:45:44;10.40;;;6.10;;
84889;SDS011;75153;52.222;5.160;2024-01-30T01:48:10;10.55;;;6.40;;
84889;SDS011;75153;52.222;5.160;2024-01-30T01:50:37;10.68;;;6.95;;
84889;SDS011;75153;52.222;5.160;2024-01-30T01:53:03;10.20;;;6.13;;
84889;SDS011;75153;52.222;5.160;2024-01-30T01:55:30;13.75;;;7.68;;
84889;SDS011;75153;52.222;5.160;2024-01-30T01:57:57;11.95;;;7.30;;
84889;SDS011;75153;52.222;5.160;2024-01-30T02:00:23;13.88;;;8.07;;
84889;SDS011;75153;52.222;5.160;2024-01-30T02:02:49;11.43;;;6.57;;
84889;SDS011;75153;52.222;5.160;2024-01-30T02:05:15;10.00;;;6.07;;
84889;SDS011;75153;52.222;5.160;2024-01-30T02:07:41;10.90;;;6.70;;
84889;SDS011;75153;52.222;5.160;2024-01-30T02:10:07;13.43;;;7.63;;
84889;SDS011;75153;52.222;5.160;2024-01-30T02:12:34;12.17;;;6.93;;
84889;SDS011;75153;52.222;5.160;2024-01-30T02:15:00;11.05;;;7.10;;
84889;SDS011;75153;52.222;5.160;2024-01-30T02:17:26;10.90;;;6.87;;
84889;SDS011;75153;52.222;5.160;2024-01-30T02:19:51;10.10;;;6.82;;
84889;SDS011;75153;52.222;5.160;2024-01-30T02:22:17;12.43;;;7.40;;
84889;SDS011;75153;52.222;5.160;2024-01-30T02:24:44;12.10;;;6.63;;
84889;SDS011;75153;52.222;5.160;2024-01-30T02:27:09;11.17;;;6.30;;
84889;SDS011;75153;52.222;5.160;2024-01-30T02:29:34;11.70;;;7.33;;
84889;SDS011;75153;52.222;5.160;2024-01-30T02:32:00;11.83;;;7.13;;
84889;SDS011;75153;52.222;5.160;2024-01-30T02:34:25;11.57;;;6.70;;
84889;SDS011;75153;52.222;5.160;2024-01-30T02:36:51;13.20;;;7.70;;
84889;SDS011;75153;52.222;5.160;2024-01-30T02:39:16;12.23;;;6.95;;
84889;SDS011;75153;52.222;5.160;2024-01-30T02:41:41;12.80;;;8.00;;
84889;SDS011;75153;52.222;5.160;2024-01-30T02:44:07;10.53;;;5.73;;
84889;SDS011;75153;52.222;5.160;2024-01-30T02:46:32;15.43;;;8.90;;
84889;SDS011;75153;52.222;5.160;2024-01-30T02:48:57;13.77;;;8.30;;
84889;SDS011;75153;52.222;5.160;2024-01-30T02:51:23;11.10;;;6.80;;
84889;SDS011;75153;52.222;5.160;2024-01-30T02:53:48;9.70;;;5.43;;
84889;SDS011;75153;52.222;5.160;2024-01-30T02:56:13;11.68;;;7.68;;
84889;SDS011;75153;52.222;5.160;2024-01-30T02:58:39;11.50;;;6.70;;
84889;SDS011;75153;52.222;5.160;2024-01-30T03:01:05;12.80;;;7.70;;
84889;SDS011;75153;52.222;5.160;2024-01-30T03:03:31;12.32;;;6.70;;
84889;SDS011;75153;52.222;5.160;2024-01-30T03:05:56;10.53;;;6.47;;
84889;SDS011;75153;52.222;5.160;2024-01-30T03:08:22;11.13;;;7.28;;
84889;SDS011;75153;52.222;5.160;2024-01-30T03:10:48;12.40;;;7.43;;
84889;SDS011;75153;52.222;5.160;2024-01-30T03:13:13;13.73;;;8.43;;
84889;SDS011;75153;52.222;5.160;2024-01-30T03:15:38;10.88;;;6.20;;
84889;SDS011;75153;52.222;5.160;2024-01-30T03:18:04;11.52;;;7.35;;
84889;SDS011;75153;52.222;5.160;2024-01-30T03:20:29;7.87;;;5.53;;
84889;SDS011;75153;52.222;5.160;2024-01-30T03:22:55;10.80;;;6.80;;
84889;SDS011;75153;52.222;5.160;2024-01-30T03:25:21;9.90;;;5.97;;
84889;SDS011;75153;52.222;5.160;2024-01-30T03:27:46;9.93;;;6.23;;
84889;SDS011;75153;52.222;5.160;2024-01-30T03:30:12;11.57;;;7.23;;
84889;SDS011;75153;52.222;5.160;2024-01-30T03:32:37;10.38;;;6.90;;
84889;SDS011;75153;52.222;5.160;2024-01-30T03:35:03;13.47;;;8.27;;
84889;SDS011;75153;52.222;5.160;2024-01-30T03:37:29;13.18;;;7.88;;
84889;SDS011;75153;52.222;5.160;2024-01-30T03:39:54;12.73;;;7.43;;
84889;SDS011;75153;52.222;5.160;2024-01-30T03:42:19;11.77;;;6.87;;
84889;SDS011;75153;52.222;5.160;2024-01-30T03:44:45;12.67;;;7.70;;
84889;SDS011;75153;52.222;5.160;2024-01-30T03:47:10;12.80;;;7.40;;
84889;SDS011;75153;52.222;5.160;2024-01-30T03:49:36;9.10;;;6.20;;
84889;SDS011;75153;52.222;5.160;2024-01-30T03:52:01;11.70;;;7.00;;
84889;SDS011;75153;52.222;5.160;2024-01-30T03:54:26;8.67;;;6.07;;
84889;SDS011;75153;52.222;5.160;2024-01-30T03:56:52;9.40;;;5.93;;
84889;SDS011;75153;52.222;5.160;2024-01-30T03:59:17;10.63;;;7.17;;
84889;SDS011;75153;52.222;5.160;2024-01-30T04:01:47;10.18;;;6.25;;
84889;SDS011;75153;52.222;5.160;2024-01-30T04:04:12;10.50;;;6.53;;
84889;SDS011;75153;52.222;5.160;2024-01-30T04:06:38;10.02;;;6.10;;
84889;SDS011;75153;52.222;5.160;2024-01-30T04:09:03;10.83;;;6.70;;
84889;SDS011;75153;52.222;5.160;2024-01-30T04:11:28;14.17;;;7.73;;
84889;SDS011;75153;52.222;5.160;2024-01-30T04:13:54;12.00;;;7.17;;
84889;SDS011;75153;52.222;5.160;2024-01-30T04:16:22;9.70;;;5.83;;
84889;SDS011;75153;52.222;5.160;2024-01-30T04:18:48;12.57;;;7.65;;
84889;SDS011;75153;52.222;5.160;2024-01-30T04:21:14;12.57;;;7.82;;
84889;SDS011;75153;52.222;5.160;2024-01-30T04:23:40;12.07;;;7.57;;
84889;SDS011;75153;52.222;5.160;2024-01-30T04:26:06;11.43;;;7.55;;
84889;SDS011;75153;52.222;5.160;2024-01-30T04:28:31;12.43;;;8.07;;
84889;SDS011;75153;52.222;5.160;2024-01-30T04:30:56;15.03;;;8.17;;
84889;SDS011;75153;52.222;5.160;2024-01-30T04:33:22;11.43;;;7.37;;
84889;SDS011;75153;52.222;5.160;2024-01-30T04:35:47;13.07;;;7.23;;
84889;SDS011;75153;52.222;5.160;2024-01-30T04:38:12;9.53;;;6.27;;
84889;SDS011;75153;52.222;5.160;2024-01-30T04:40:39;12.40;;;7.40;;
84889;SDS011;75153;52.222;5.160;2024-01-30T04:43:05;13.68;;;7.43;;
84889;SDS011;75153;52.222;5.160;2024-01-30T04:45:30;13.40;;;7.87;;
84889;SDS011;75153;52.222;5.160;2024-01-30T04:47:56;13.40;;;7.90;;
84889;SDS011;75153;52.222;5.160;2024-01-30T04:50:21;11.90;;;6.73;;
84889;SDS011;75153;52.222;5.160;2024-01-30T04:52:48;11.85;;;7.45;;
84889;SDS011;75153;52.222;5.160;2024-01-30T04:55:13;11.20;;;6.70;;
84889;SDS011;75153;52.222;5.160;2024-01-30T04:57:39;11.18;;;6.97;;
84889;SDS011;75153;52.222;5.160;2024-01-30T05:00:04;10.73;;;7.22;;
84889;SDS011;75153;52.222;5.160;2024-01-30T05:02:30;9.87;;;6.40;;
84889;SDS011;75153;52.222;5.160;2024-01-30T05:04:56;14.13;;;8.35;;
84889;SDS011;75153;52.222;5.160;2024-01-30T05:07:21;12.10;;;7.50;;
84889;SDS011;75153;52.222;5.160;2024-01-30T05:09:47;12.70;;;7.17;;
84889;SDS011;75153;52.222;5.160;2024-01-30T05:12:12;13.27;;;7.07;;
84889;SDS011;75153;52.222;5.160;2024-01-30T05:14:37;10.55;;;5.75;;
84889;SDS011;75153;52.222;5.160;2024-01-30T05:17:03;13.77;;;7.60;;
84889;SDS011;75153;52.222;5.160;2024-01-30T05:19:28;11.17;;;7.10;;
84889;SDS011;75153;52.222;5.160;2024-01-30T05:21:54;9.90;;;6.40;;
84889;SDS011;75153;52.222;5.160;2024-01-30T05:24:19;12.93;;;6.72;;
84889;SDS011;75153;52.222;5.160;2024-01-30T05:26:44;11.13;;;6.07;;
84889;SDS011;75153;52.222;5.160;2024-01-30T05:29:10;10.47;;;5.60;;
84889;SDS011;75153;52.222;5.160;2024-01-30T05:31:35;11.20;;;7.27;;
84889;SDS011;75153;52.222;5.160;2024-01-30T05:34:01;12.97;;;7.33;;
84889;SDS011;75153;52.222;5.160;2024-01-30T05:36:26;12.85;;;7.22;;
84889;SDS011;75153;52.222;5.160;2024-01-30T05:38:52;12.23;;;7.60;;
84889;SDS011;75153;52.222;5.160;2024-01-30T05:41:18;12.30;;;7.20;;
84889;SDS011;75153;52.222;5.160;2024-01-30T05:43:43;12.50;;;7.30;;
84889;SDS011;75153;52.222;5.160;2024-01-30T05:46:09;11.38;;;7.40;;
84889;SDS011;75153;52.222;5.160;2024-01-30T05:48:34;11.60;;;7.47;;
84889;SDS011;75153;52.222;5.160;2024-01-30T05:51:00;12.00;;;7.10;;
84889;SDS011;75153;52.222;5.160;2024-01-30T05:53:26;10.60;;;6.07;;
84889;SDS011;75153;52.222;5.160;2024-01-30T05:55:52;13.00;;;7.33;;
84889;SDS011;75153;52.222;5.160;2024-01-30T05:58:18;14.25;;;7.88;;
84889;SDS011;75153;52.222;5.160;2024-01-30T06:00:43;13.63;;;7.87;;
84889;SDS011;75153;52.222;5.160;2024-01-30T06:03:08;12.40;;;7.00;;
84889;SDS011;75153;52.222;5.160;2024-01-30T06:05:34;12.33;;;7.23;;
84889;SDS011;75153;52.222;5.160;2024-01-30T06:07:59;13.90;;;8.20;;
84889;SDS011;75153;52.222;5.160;2024-01-30T06:10:24;10.63;;;6.55;;
84889;SDS011;75153;52.222;5.160;2024-01-30T06:12:50;13.53;;;8.43;;
84889;SDS011;75153;52.222;5.160;2024-01-30T06:15:15;14.50;;;7.97;;
84889;SDS011;75153;52.222;5.160;2024-01-30T06:17:41;14.20;;;7.00;;
84889;SDS011;75153;52.222;5.160;2024-01-30T06:20:06;12.03;;;6.93;;
84889;SDS011;75153;52.222;5.160;2024-01-30T06:22:32;10.73;;;6.60;;
84889;SDS011;75153;52.222;5.160;2024-01-30T06:24:57;10.90;;;5.90;;
84889;SDS011;75153;52.222;5.160;2024-01-30T06:27:23;10.40;;;5.87;;
84889;SDS011;75153;52.222;5.160;2024-01-30T06:29:48;9.23;;;6.07;;
84889;SDS011;75153;52.222;5.160;2024-01-30T06:32:14;9.43;;;5.67;;
84889;SDS011;75153;52.222;5.160;2024-01-30T06:34:40;10.40;;;6.57;;
84889;SDS011;75153;52.222;5.160;2024-01-30T06:37:06;11.13;;;6.50;;
84889;SDS011;75153;52.222;5.160;2024-01-30T06:39:31;12.00;;;6.50;;
84889;SDS011;75153;52.222;5.160;2024-01-30T06:41:57;13.10;;;7.70;;
84889;SDS011;75153;52.222;5.160;2024-01-30T06:44:22;11.37;;;7.03;;
84889;SDS011;75153;52.222;5.160;2024-01-30T06:46:48;9.93;;;6.30;;
84889;SDS011;75153;52.222;5.160;2024-01-30T06:49:13;8.10;;;5.57;;
84889;SDS011;75153;52.222;5.160;2024-01-30T06:51:38;11.27;;;7.03;;
84889;SDS011;75153;52.222;5.160;2024-01-30T06:54:04;14.27;;;6.70;;
84889;SDS011;75153;52.222;5.160;2024-01-30T06:56:29;10.97;;;6.30;;
84889;SDS011;75153;52.222;5.160;2024-01-30T06:58:55;13.33;;;7.63;;
84889;SDS011;75153;52.222;5.160;2024-01-30T07:01:20;11.27;;;6.80;;
84889;SDS011;75153;52.222;5.160;2024-01-30T07:03:46;8.32;;;5.35;;
84889;SDS011;75153;52.222;5.160;2024-01-30T07:06:11;11.07;;;7.30;;
84889;SDS011;75153;52.222;5.160;2024-01-30T07:08:37;11.13;;;6.45;;
84889;SDS011;75153;52.222;5.160;2024-01-30T07:11:06;15.15;;;7.72;;
84889;SDS011;75153;52.222;5.160;2024-01-30T07:13:31;11.17;;;6.80;;
84889;SDS011;75153;52.222;5.160;2024-01-30T07:15:57;14.88;;;8.25;;
84889;SDS011;75153;52.222;5.160;2024-01-30T07:18:22;12.88;;;7.05;;
84889;SDS011;75153;52.222;5.160;2024-01-30T07:20:48;13.67;;;6.53;;
84889;SDS011;75153;52.222;5.160;2024-01-30T07:23:14;9.77;;;6.22;;
84889;SDS011;75153;52.222;5.160;2024-01-30T07:25:42;12.50;;;7.28;;
84889;SDS011;75153;52.222;5.160;2024-01-30T07:28:08;8.67;;;6.03;;
84889;SDS011;75153;52.222;5.160;2024-01-30T07:30:35;10.15;;;5.53;;
84889;SDS011;75153;52.222;5.160;2024-01-30T07:33:00;14.95;;;7.28;;
84889;SDS011;75153;52.222;5.160;2024-01-30T07:35:25;13.57;;;6.65;;
84889;SDS011;75153;52.222;5.160;2024-01-30T07:37:51;11.20;;;6.97;;
84889;SDS011;75153;52.222;5.160;2024-01-30T07:40:16;12.10;;;7.13;;
84889;SDS011;75153;52.222;5.160;2024-01-30T07:42:42;13.60;;;7.30;;
84889;SDS011;75153;52.222;5.160;2024-01-30T07:45:08;10.23;;;6.30;;
84889;SDS011;75153;52.222;5.160;2024-01-30T07:47:33;12.30;;;6.70;;
84889;SDS011;75153;52.222;5.160;2024-01-30T07:49:59;10.15;;;5.45;;
84889;SDS011;75153;52.222;5.160;2024-01-30T07:52:24;11.87;;;6.20;;
84889;SDS011;75153;52.222;5.160;2024-01-30T07:54:50;12.30;;;6.43;;
84889;SDS011;75153;52.222;5.160;2024-01-30T07:57:16;13.88;;;7.88;;
84889;SDS011;75153;52.222;5.160;2024-01-30T07:59:42;16.30;;;8.17;;
84889;SDS011;75153;52.222;5.160;2024-01-30T08:02:09;13.98;;;7.95;;
84889;SDS011;75153;52.222;5.160;2024-01-30T08:04:35;11.98;;;6.60;;
84889;SDS011;75153;52.222;5.160;2024-01-30T08:07:01;12.93;;;6.47;;
84889;SDS011;75153;52.222;5.160;2024-01-30T08:09:26;13.80;;;5.82;;
84889;SDS011;75153;52.222;5.160;2024-01-30T08:11:52;13.53;;;7.17;;
84889;SDS011;75153;52.222;5.160;2024-01-30T08:14:17;11.87;;;6.20;;
84889;SDS011;75153;52.222;5.160;2024-01-30T08:16:42;12.70;;;7.07;;
84889;SDS011;75153;52.222;5.160;2024-01-30T08:19:08;13.97;;;6.53;;
84889;SDS011;75153;52.222;5.160;2024-01-30T08:21:33;13.07;;;7.57;;
84889;SDS011;75153;52.222;5.160;2024-01-30T08:24:04;10.15;;;6.30;;
84889;SDS011;75153;52.222;5.160;2024-01-30T08:26:31;14.10;;;7.65;;
84889;SDS011;75153;52.222;5.160;2024-01-30T08:28:57;13.48;;;6.32;;
84889;SDS011;75153;52.222;5.160;2024-01-30T08:31:22;13.20;;;7.40;;
84889;SDS011;75153;52.222;5.160;2024-01-30T08:33:48;10.70;;;6.10;;
84889;SDS011;75153;52.222;5.160;2024-01-30T08:36:13;13.52;;;6.93;;
84889;SDS011;75153;52.222;5.160;2024-01-30T08:38:39;13.93;;;6.47;;
84889;SDS011;75153;52.222;5.160;2024-01-30T08:41:04;16.45;;;7.90;;
84889;SDS011;75153;52.222;5.160;2024-01-30T08:43:30;15.40;;;7.32;;
84889;SDS011;75153;52.222;5.160;2024-01-30T08:45:58;17.37;;;7.87;;
84889;SDS011;75153;52.222;5.160;2024-01-30T08:48:24;18.13;;;7.93;;
84889;SDS011;75153;52.222;5.160;2024-01-30T08:50:50;12.27;;;6.90;;
84889;SDS011;75153;52.222;5.160;2024-01-30T08:53:16;13.00;;;6.38;;
84889;SDS011;75153;52.222;5.160;2024-01-30T08:55:41;12.23;;;6.57;;
84889;SDS011;75153;52.222;5.160;2024-01-30T08:58:06;19.10;;;8.40;;
84889;SDS011;75153;52.222;5.160;2024-01-30T09:00:32;15.70;;;6.77;;
84889;SDS011;75153;52.222;5.160;2024-01-30T09:02:57;12.97;;;6.93;;
84889;SDS011;75153;52.222;5.160;2024-01-30T09:05:22;12.60;;;6.33;;
84889;SDS011;75153;52.222;5.160;2024-01-30T09:07:48;14.57;;;6.80;;
84889;SDS011;75153;52.222;5.160;2024-01-30T09:10:13;13.27;;;7.07;;
84889;SDS011;75153;52.222;5.160;2024-01-30T09:12:38;14.60;;;6.90;;
84889;SDS011;75153;52.222;5.160;2024-01-30T09:15:04;12.63;;;6.77;;
84889;SDS011;75153;52.222;5.160;2024-01-30T09:17:30;14.53;;;7.20;;
84889;SDS011;75153;52.222;5.160;2024-01-30T09:19:55;11.20;;;6.78;;
84889;SDS011;75153;52.222;5.160;2024-01-30T09:22:21;17.10;;;7.90;;
84889;SDS011;75153;52.222;5.160;2024-01-30T09:24:46;12.37;;;7.03;;
84889;SDS011;75153;52.222;5.160;2024-01-30T09:27:12;13.40;;;6.93;;
84889;SDS011;75153;52.222;5.160;2024-01-30T09:29:37;15.23;;;7.97;;
84889;SDS011;75153;52.222;5.160;2024-01-30T09:32:03;10.60;;;6.30;;
84889;SDS011;75153;52.222;5.160;2024-01-30T09:34:29;15.25;;;7.90;;
84889;SDS011;75153;52.222;5.160;2024-01-30T09:36:54;14.57;;;7.33;;
84889;SDS011;75153;52.222;5.160;2024-01-30T09:39:20;13.97;;;7.07;;
84889;SDS011;75153;52.222;5.160;2024-01-30T09:41:48;14.80;;;7.20;;
84889;SDS011;75153;52.222;5.160;2024-01-30T09:44:17;15.70;;;7.75;;
84889;SDS011;75153;52.222;5.160;2024-01-30T09:46:45;12.68;;;7.13;;
84889;SDS011;75153;52.222;5.160;2024-01-30T09:49:13;13.17;;;6.63;;
84889;SDS011;75153;52.222;5.160;2024-01-30T09:51:39;12.40;;;7.05;;
84889;SDS011;75153;52.222;5.160;2024-01-30T09:54:05;13.60;;;6.22;;
84889;SDS011;75153;52.222;5.160;2024-01-30T09:56:33;14.85;;;7.90;;
84889;SDS011;75153;52.222;5.160;2024-01-30T09:58:58;15.47;;;8.07;;
84889;SDS011;75153;52.222;5.160;2024-01-30T10:01:24;13.70;;;6.67;;
84889;SDS011;75153;52.222;5.160;2024-01-30T10:03:50;16.60;;;8.45;;
84889;SDS011;75153;52.222;5.160;2024-01-30T10:06:17;15.30;;;7.97;;
84889;SDS011;75153;52.222;5.160;2024-01-30T10:08:43;12.02;;;6.15;;
84889;SDS011;75153;52.222;5.160;2024-01-30T10:11:09;14.85;;;8.07;;
84889;SDS011;75153;52.222;5.160;2024-01-30T10:13:34;14.32;;;7.68;;
84889;SDS011;75153;52.222;5.160;2024-01-30T10:16:00;11.37;;;7.57;;
84889;SDS011;75153;52.222;5.160;2024-01-30T10:18:28;14.13;;;8.77;;
84889;SDS011;75153;52.222;5.160;2024-01-30T10:20:53;13.10;;;8.27;;
84889;SDS011;75153;52.222;5.160;2024-01-30T10:23:19;11.93;;;7.43;;
84889;SDS011;75153;52.222;5.160;2024-01-30T10:25:45;19.40;;;8.47;;
84889;SDS011;75153;52.222;5.160;2024-01-30T10:28:11;15.82;;;8.75;;
84889;SDS011;75153;52.222;5.160;2024-01-30T10:30:36;15.37;;;7.67;;
84889;SDS011;75153;52.222;5.160;2024-01-30T10:33:01;14.07;;;6.60;;
84889;SDS011;75153;52.222;5.160;2024-01-30T10:35:27;12.55;;;5.80;;
84889;SDS011;75153;52.222;5.160;2024-01-30T10:37:52;13.57;;;5.87;;
84889;SDS011;75153;52.222;5.160;2024-01-30T10:40:22;12.02;;;5.28;;
84889;SDS011;75153;52.222;5.160;2024-01-30T10:42:53;14.25;;;5.45;;
84889;SDS011;75153;52.222;5.160;2024-01-30T10:45:20;13.43;;;4.90;;
84889;SDS011;75153;52.222;5.160;2024-01-30T10:47:48;13.95;;;5.25;;
84889;SDS011;75153;52.222;5.160;2024-01-30T10:50:15;12.63;;;5.00;;
84889;SDS011;75153;52.222;5.160;2024-01-30T10:52:41;12.13;;;5.13;;
84889;SDS011;75153;52.222;5.160;2024-01-30T10:55:10;14.13;;;5.20;;
84889;SDS011;75153;52.222;5.160;2024-01-30T10:57:36;9.15;;;3.60;;
84889;SDS011;75153;52.222;5.160;2024-01-30T11:00:03;10.93;;;4.72;;
84889;SDS011;75153;52.222;5.160;2024-01-30T11:02:35;9.30;;;3.88;;
84889;SDS011;75153;52.222;5.160;2024-01-30T11:05:04;14.40;;;3.92;;
84889;SDS011;75153;52.222;5.160;2024-01-30T11:07:30;11.17;;;3.60;;
84889;SDS011;75153;52.222;5.160;2024-01-30T11:12:24;10.83;;;2.60;;
84889;SDS011;75153;52.222;5.160;2024-01-30T11:15:12;8.32;;;2.25;;
84889;SDS011;75153;52.222;5.160;2024-01-30T11:20:14;6.80;;;2.38;;
84889;SDS011;75153;52.222;5.160;2024-01-30T11:23:00;5.45;;;2.30;;
84889;SDS011;75153;52.222;5.160;2024-01-30T11:25:31;5.33;;;3.00;;
84889;SDS011;75153;52.222;5.160;2024-01-30T11:27:57;7.30;;;2.80;;
84889;SDS011;75153;52.222;5.160;2024-01-30T11:30:26;5.30;;;2.80;;
84889;SDS011;75153;52.222;5.160;2024-01-30T11:32:59;7.63;;;3.00;;
84889;SDS011;75153;52.222;5.160;2024-01-30T11:35:25;9.80;;;3.90;;
84889;SDS011;75153;52.222;5.160;2024-01-30T11:37:50;9.40;;;3.37;;
84889;SDS011;75153;52.222;5.160;2024-01-30T11:40:16;6.13;;;3.35;;
84889;SDS011;75153;52.222;5.160;2024-01-30T11:42:41;5.57;;;3.37;;
84889;SDS011;75153;52.222;5.160;2024-01-30T11:45:07;5.32;;;3.58;;
84889;SDS011;75153;52.222;5.160;2024-01-30T11:47:34;5.17;;;3.30;;
84889;SDS011;75153;52.222;5.160;2024-01-30T11:50:01;5.38;;;3.08;;
84889;SDS011;75153;52.222;5.160;2024-01-30T11:52:28;8.50;;;2.78;;
84889;SDS011;75153;52.222;5.160;2024-01-30T11:54:54;4.53;;;2.30;;
84889;SDS011;75153;52.222;5.160;2024-01-30T11:57:19;5.07;;;2.27;;
84889;SDS011;75153;52.222;5.160;2024-01-30T11:59:45;4.83;;;2.00;;
84889;SDS011;75153;52.222;5.160;2024-01-30T12:02:15;6.17;;;2.00;;
84889;SDS011;75153;52.222;5.160;2024-01-30T12:04:40;7.32;;;1.60;;
84889;SDS011;75153;52.222;5.160;2024-01-30T12:07:06;5.77;;;1.40;;
84889;SDS011;75153;52.222;5.160;2024-01-30T12:09:32;4.72;;;1.23;;
84889;SDS011;75153;52.222;5.160;2024-01-30T12:11:57;3.55;;;1.20;;
84889;SDS011;75153;52.222;5.160;2024-01-30T12:14:23;6.77;;;1.20;;
84889;SDS011;75153;52.222;5.160;2024-01-30T12:16:50;7.50;;;1.20;;
84889;SDS011;75153;52.222;5.160;2024-01-30T12:19:25;1.75;;;0.63;;
84889;SDS011;75153;52.222;5.160;2024-01-30T12:21:54;5.07;;;1.10;;
84889;SDS011;75153;52.222;5.160;2024-01-30T12:24:26;3.77;;;0.87;;
84889;SDS011;75153;52.222;5.160;2024-01-30T12:26:56;4.20;;;1.17;;
84889;SDS011;75153;52.222;5.160;2024-01-30T12:29:22;5.75;;;1.40;;
84889;SDS011;75153;52.222;5.160;2024-01-30T12:31:47;4.63;;;1.20;;
84889;SDS011;75153;52.222;5.160;2024-01-30T12:34:15;5.97;;;1.20;;
84889;SDS011;75153;52.222;5.160;2024-01-30T12:36:42;4.82;;;1.00;;
84889;SDS011;75153;52.222;5.160;2024-01-30T12:39:10;10.02;;;1.48;;
84889;SDS011;75153;52.222;5.160;2024-01-30T12:41:37;5.57;;;1.20;;
84889;SDS011;75153;52.222;5.160;2024-01-30T12:44:03;10.80;;;1.10;;
84889;SDS011;75153;52.222;5.160;2024-01-30T12:46:28;5.57;;;1.10;;
84889;SDS011;75153;52.222;5.160;2024-01-30T12:48:54;5.20;;;1.00;;
84889;SDS011;75153;52.222;5.160;2024-01-30T12:51:19;7.33;;;1.40;;
84889;SDS011;75153;52.222;5.160;2024-01-30T12:53:45;5.40;;;0.90;;
84889;SDS011;75153;52.222;5.160;2024-01-30T12:56:12;4.85;;;1.20;;
84889;SDS011;75153;52.222;5.160;2024-01-30T12:58:38;4.67;;;1.40;;
84889;SDS011;75153;52.222;5.160;2024-01-30T13:01:03;4.10;;;1.13;;
84889;SDS011;75153;52.222;5.160;2024-01-30T13:03:29;5.53;;;1.20;;
84889;SDS011;75153;52.222;5.160;2024-01-30T13:05:54;5.13;;;1.30;;
84889;SDS011;75153;52.222;5.160;2024-01-30T13:08:21;4.13;;;1.20;;
84889;SDS011;75153;52.222;5.160;2024-01-30T13:10:46;7.90;;;1.55;;
84889;SDS011;75153;52.222;5.160;2024-01-30T13:13:12;6.53;;;1.33;;
84889;SDS011;75153;52.222;5.160;2024-01-30T13:15:37;5.73;;;1.80;;
84889;SDS011;75153;52.222;5.160;2024-01-30T13:18:03;6.20;;;1.77;;
84889;SDS011;75153;52.222;5.160;2024-01-30T13:20:30;5.10;;;1.48;;
84889;SDS011;75153;52.222;5.160;2024-01-30T13:22:55;5.30;;;1.50;;
84889;SDS011;75153;52.222;5.160;2024-01-30T13:25:20;10.13;;;1.93;;
84889;SDS011;75153;52.222;5.160;2024-01-30T13:27:46;6.57;;;1.40;;
84889;SDS011;75153;52.222;5.160;2024-01-30T13:30:11;4.73;;;1.43;;
84889;SDS011;75153;52.222;5.160;2024-01-30T13:32:37;6.03;;;1.48;;
84889;SDS011;75153;52.222;5.160;2024-01-30T13:35:02;5.40;;;1.45;;
84889;SDS011;75153;52.222;5.160;2024-01-30T13:37:28;2.93;;;1.63;;
84889;SDS011;75153;52.222;5.160;2024-01-30T13:39:54;4.57;;;1.98;;
84889;SDS011;75153;52.222;5.160;2024-01-30T13:42:19;7.30;;;1.70;;
84889;SDS011;75153;52.222;5.160;2024-01-30T13:44:45;6.87;;;2.37;;
84889;SDS011;75153;52.222;5.160;2024-01-30T13:47:10;9.00;;;2.47;;
84889;SDS011;75153;52.222;5.160;2024-01-30T13:49:36;9.73;;;2.43;;
84889;SDS011;75153;52.222;5.160;2024-01-30T13:52:01;10.30;;;2.60;;
84889;SDS011;75153;52.222;5.160;2024-01-30T13:54:28;8.23;;;2.60;;
84889;SDS011;75153;52.222;5.160;2024-01-30T13:56:54;5.07;;;1.80;;
84889;SDS011;75153;52.222;5.160;2024-01-30T13:59:19;7.90;;;2.53;;
84889;SDS011;75153;52.222;5.160;2024-01-30T14:01:48;8.27;;;2.45;;
84889;SDS011;75153;52.222;5.160;2024-01-30T14:04:14;6.03;;;2.23;;
84889;SDS011;75153;52.222;5.160;2024-01-30T14:06:40;3.83;;;2.70;;
84889;SDS011;75153;52.222;5.160;2024-01-30T14:09:05;8.45;;;2.50;;
84889;SDS011;75153;52.222;5.160;2024-01-30T14:11:30;6.60;;;2.57;;
84889;SDS011;75153;52.222;5.160;2024-01-30T14:13:56;9.23;;;3.17;;
84889;SDS011;75153;52.222;5.160;2024-01-30T14:16:21;3.83;;;2.40;;
84889;SDS011;75153;52.222;5.160;2024-01-30T14:18:47;3.90;;;2.67;;
84889;SDS011;75153;52.222;5.160;2024-01-30T14:21:13;7.25;;;3.45;;
84889;SDS011;75153;52.222;5.160;2024-01-30T14:23:38;6.50;;;2.40;;
84889;SDS011;75153;52.222;5.160;2024-01-30T14:26:04;7.45;;;2.30;;
84889;SDS011;75153;52.222;5.160;2024-01-30T14:28:31;4.17;;;2.20;;
84889;SDS011;75153;52.222;5.160;2024-01-30T14:30:56;2.50;;;1.90;;
84889;SDS011;75153;52.222;5.160;2024-01-30T14:33:22;8.63;;;2.90;;
84889;SDS011;75153;52.222;5.160;2024-01-30T14:35:47;7.33;;;3.30;;